Time;durP1;ratioP1;P1;durP2;ratioP2;P2;SDS_P1;SDS_P2;PMS_P1;PMS_P2;Temp;Humidity;BMP_temperature;BMP_pressure;BME280_temperature;BME280_humidity;BME280_pressure;Samples;Min_cycle;Max_cycle;Signal;HPM_P1;HPM_P2
2022/06/02 00:03:02;;;;;;;0.60;0.60;;;22.20;41.60;;;26.10;27.28;101388.69;5074020;28;20473;-19
2022/06/02 00:05:57;;;;;;;0.68;0.68;;;22.20;41.60;;;26.07;27.38;101387.09;5093040;28;20480;-19
2022/06/02 00:08:57;;;;;;;0.80;0.80;;;22.20;41.60;;;26.06;27.31;101388.03;5093455;28;20502;-20
2022/06/02 00:11:46;;;;;;;0.80;0.80;;;22.20;41.60;;;26.02;27.30;101379.38;5092989;28;20055;-19
2022/06/02 00:14:20;;;;;;;0.63;0.63;;;22.20;41.60;;;26.01;27.29;101369.66;5073735;28;20480;-18
2022/06/02 00:17:19;;;;;;;0.88;0.82;;;22.20;41.60;;;26.03;27.32;101373.06;5092991;28;20481;-18
2022/06/02 00:20:14;;;;;;;1.00;0.90;;;22.20;41.70;;;26.04;27.20;101374.78;5073642;28;20087;-18
2022/06/02 00:23:04;;;;;;;0.82;0.80;;;22.10;41.60;;;26.04;27.25;101385.50;5092905;28;20054;-19
2022/06/02 00:25:41;;;;;;;0.70;0.70;;;22.20;41.70;;;26.02;27.44;101370.50;5092838;28;20055;-19
2022/06/02 00:28:45;;;;;;;0.70;0.70;;;22.10;41.60;;;26.01;27.36;101376.81;5074311;28;20051;-18
2022/06/02 00:32:17;;;;;;;0.70;0.70;;;22.20;41.70;;;26.05;27.37;101387.19;5092584;28;20484;-18
2022/06/02 00:35:14;;;;;;;0.70;0.70;;;22.20;41.70;;;25.97;27.25;101378.88;5093107;28;20052;-19
2022/06/02 00:38:19;;;;;;;0.93;0.68;;;22.20;41.70;;;26.02;27.42;101389.25;5074144;28;20051;-18
2022/06/02 00:40:45;;;;;;;0.80;0.80;;;22.10;41.70;;;26.04;27.27;101393.56;5091203;28;20052;-18
2022/06/02 00:43:52;;;;;;;0.80;0.70;;;22.20;41.70;;;25.98;27.32;101387.78;5092374;28;20048;-19
2022/06/02 00:46:46;;;;;;;0.77;0.77;;;22.10;41.70;;;25.98;27.31;101394.00;5074438;28;20048;-20
2022/06/02 00:49:36;;;;;;;0.65;0.65;;;22.20;41.70;;;26.02;27.52;101406.19;5074370;28;20128;-18
2022/06/02 00:52:28;;;;;;;0.55;0.55;;;22.10;41.70;;;25.98;27.39;101395.84;5092593;28;20056;-18
2022/06/02 00:58:20;;;;;;;0.80;0.80;;;22.20;41.70;;;25.98;27.35;101402.03;5092198;28;20052;-18
2022/06/02 01:00:54;;;;;;;0.77;0.70;;;22.20;41.80;;;25.96;27.36;101401.31;5074161;28;20048;-19
2022/06/02 01:03:23;;;;;;;0.65;0.65;;;22.20;41.70;;;25.96;27.46;101414.69;5074192;28;20063;-18
2022/06/02 01:06:18;;;;;;;0.85;0.85;;;22.10;41.70;;;25.97;27.35;101418.22;5092139;28;20044;-20
2022/06/02 01:09:28;;;;;;;0.80;0.80;;;22.10;41.70;;;26.00;27.48;101420.69;5092225;28;20052;-19
2022/06/02 01:12:05;;;;;;;0.80;0.80;;;22.10;41.70;;;25.97;27.40;101423.59;5091998;28;20510;-19
2022/06/02 01:15:00;;;;;;;0.80;0.80;;;22.10;41.80;;;25.94;27.47;101416.59;5092288;28;20040;-19
2022/06/02 01:18:01;;;;;;;0.63;0.63;;;22.10;41.90;;;25.95;27.37;101421.03;5072994;28;20095;-19
2022/06/02 01:20:55;;;;;;;0.82;0.80;;;22.10;41.70;;;25.99;27.40;101433.19;5073501;28;20052;-18
2022/06/02 01:23:45;;;;;;;0.70;0.60;;;22.10;41.70;;;25.97;27.47;101432.47;5091985;28;20132;-18
2022/06/02 01:26:44;;;;;;;0.50;0.50;;;22.10;41.80;;;25.97;27.36;101427.13;5091982;28;20059;-19
2022/06/02 01:29:56;;;;;;;1.20;0.75;;;22.10;41.70;;;25.97;27.36;101427.13;5092063;28;20042;-18
2022/06/02 01:32:35;;;;;;;0.60;0.60;;;22.10;42.30;;;25.95;27.43;101428.19;5091986;28;20055;-19
2022/06/02 01:35:37;;;;;;;0.70;0.70;;;22.10;41.70;;;25.96;27.45;101428.09;5092144;28;20060;-18
2022/06/02 01:38:30;;;;;;;0.85;0.85;;;22.10;41.80;;;25.95;27.46;101431.75;5072842;28;20052;-19
2022/06/02 01:41:18;;;;;;;0.88;0.88;;;22.10;41.70;;;25.94;27.34;101423.78;5091804;28;20048;-19
2022/06/02 01:43:58;;;;;;;0.60;0.60;;;22.10;41.70;;;25.96;27.43;101435.25;5093953;28;20181;-19
2022/06/02 01:46:42;;;;;;;0.60;0.60;;;22.10;41.80;;;25.94;27.34;101435.34;5095071;28;20143;-18
2022/06/02 01:49:20;;;;;;;0.68;0.68;;;22.10;41.80;;;25.94;27.31;101438.03;5075240;28;20045;-18
2022/06/02 01:52:16;;;;;;;0.80;0.70;;;22.10;41.80;;;25.94;27.36;101439.84;5094977;28;20047;-19
2022/06/02 01:55:42;;;;;;;1.00;0.90;;;22.10;41.80;;;25.96;27.42;101446.84;5095709;28;20052;-19
2022/06/02 01:58:31;;;;;;;0.70;0.70;;;22.10;41.80;;;25.94;27.42;101437.19;5091468;28;20555;-19
2022/06/02 02:01:07;;;;;;;0.80;0.80;;;22.10;41.80;;;25.90;27.37;101431.19;5094983;28;20476;-19
2022/06/02 02:04:12;;;;;;;0.57;0.57;;;22.10;41.80;;;25.95;27.51;101441.56;5095217;28;20056;-19
2022/06/02 02:07:24;;;;;;;0.80;0.80;;;22.00;41.80;;;25.94;27.45;101443.38;5077012;28;20048;-19
2022/06/02 02:10:08;;;;;;;0.70;0.70;;;22.10;41.80;;;25.92;27.39;101448.00;5093403;28;20164;-19
2022/06/02 02:13:15;;;;;;;0.43;0.43;;;22.10;41.80;;;25.94;27.45;101445.22;5094846;28;20060;-18
2022/06/02 02:16:09;;;;;;;1.13;0.68;;;22.00;41.80;;;25.92;27.39;101449.84;5076504;28;20048;-18
2022/06/02 02:19:14;;;;;;;0.60;0.60;;;22.10;41.80;;;25.88;27.46;101447.38;5075536;28;20057;-19
2022/06/02 02:22:33;;;;;;;1.13;0.98;;;22.10;41.80;;;25.93;27.59;101447.03;5094643;28;20050;-19
2022/06/02 02:25:01;;;;;;;1.65;0.77;;;22.10;41.80;;;25.92;27.37;101457.88;5094728;28;20048;-18
2022/06/02 02:28:05;;;;;;;0.70;0.70;;;22.00;41.80;;;25.90;27.44;101457.97;5094204;28;20403;-19
2022/06/02 02:30:45;;;;;;;0.60;0.60;;;22.10;41.80;;;25.90;27.52;101463.34;5074962;28;20080;-20
2022/06/02 02:33:46;;;;;;;0.60;0.60;;;22.00;41.80;;;25.87;27.64;101459.06;5094472;28;20048;-19
2022/06/02 02:36:37;;;;;;;;;;;22.00;41.80;;;26.04;27.37;101457.88;5095197;28;20048;-19
2022/06/02 02:39:18;;;;;;;0.60;0.60;;;22.00;41.80;;;25.89;27.45;101450.91;5074364;28;19916;-18
2022/06/02 02:42:03;;;;;;;;;;;22.00;41.80;;;26.06;27.39;101457.72;5076644;28;20055;-18
2022/06/02 02:45:15;;;;;;;0.70;0.70;;;22.00;41.80;;;25.95;27.34;101453.16;5076194;28;19942;-20
2022/06/02 02:47:53;;;;;;;0.60;0.60;;;22.00;41.80;;;25.88;27.40;101460.78;5094089;28;20048;-18
2022/06/02 02:50:38;;;;;;;0.80;0.80;;;22.00;41.80;;;25.84;27.53;101451.25;5076320;28;20078;-18
2022/06/02 02:53:12;;;;;;;0.60;0.60;;;22.00;41.80;;;25.85;27.58;101452.97;5076349;28;20051;-18
2022/06/02 02:55:55;;;;;;;0.52;0.52;;;22.00;41.80;;;25.84;27.49;101451.25;5093294;28;20361;-18
2022/06/02 02:58:50;;;;;;;0.80;0.80;;;22.00;41.80;;;25.88;27.56;101454.56;5076130;28;20048;-18
2022/06/02 03:01:48;;;;;;;0.65;0.65;;;22.00;41.80;;;25.87;27.55;101450.16;5075905;28;20144;-18
2022/06/02 03:04:52;;;;;;;0.55;0.55;;;22.00;41.80;;;25.89;27.57;101461.63;5094338;28;20565;-19
2022/06/02 03:07:19;;;;;;;0.63;0.60;;;22.00;41.80;;;25.88;27.56;101459.94;5094097;28;20040;-19
2022/06/02 03:09:58;;;;;;;0.65;0.65;;;22.00;41.80;;;25.86;27.55;101468.06;5093826;28;20063;-19
2022/06/02 03:12:51;;;;;;;0.70;0.70;;;22.00;41.80;;;25.87;27.52;101464.41;5094197;28;20051;-19
2022/06/02 03:15:26;;;;;;;0.60;0.60;;;22.00;41.80;;;25.83;27.50;101462.09;5076244;28;20492;-19
2022/06/02 03:18:40;;;;;;;0.93;0.60;;;22.00;41.80;;;25.91;27.69;101472.22;5075511;28;20052;-19
2022/06/02 03:21:36;;;;;;;0.70;0.60;;;22.10;41.80;;;25.83;27.39;101462.94;5075893;28;20044;-18
2022/06/02 03:24:05;;;;;;;0.73;0.73;;;22.10;41.80;;;25.90;27.44;101474.06;5075891;28;20112;-18
2022/06/02 03:27:07;;;;;;;0.82;0.80;;;22.10;41.80;;;25.87;27.39;101475.13;5093688;28;20051;-18
2022/06/02 03:30:17;;;;;;;0.63;0.60;;;22.10;41.70;;;25.94;27.47;101477.38;5093340;28;20059;-19
2022/06/02 03:32:48;;;;;;;0.80;0.80;;;22.10;41.70;;;25.96;27.33;101486.16;5052677;28;20052;-18
2022/06/02 03:35:54;;;;;;;0.60;0.60;;;22.10;41.60;;;26.00;27.42;101487.69;5093838;28;20480;-20
2022/06/02 03:38:45;;;;;;;0.63;0.63;;;22.20;41.60;;;26.01;27.38;101486.69;5093271;28;20538;-19
2022/06/02 03:41:36;;;;;;;0.70;0.70;;;22.20;41.50;;;26.04;27.37;101486.47;5058946;28;20407;-19
2022/06/02 03:44:27;;;;;;;0.60;0.60;;;22.20;41.50;;;26.04;27.28;101481.97;5093665;28;20048;-18
2022/06/02 03:47:03;;;;;;;1.75;0.77;;;22.30;41.50;;;26.10;27.14;101479.81;5093201;28;20052;-19
2022/06/02 03:49:47;;;;;;;0.70;0.70;;;22.30;41.40;;;26.11;27.28;101481.50;5093364;28;20056;-18
2022/06/02 03:52:47;;;;;;;0.60;0.60;;;22.30;41.40;;;26.17;27.44;101481.06;5093295;28;20118;-20
2022/06/02 03:55:38;;;;;;;0.60;0.60;;;22.40;41.30;;;26.18;27.21;101489.00;5073120;28;20047;-19
2022/06/02 03:58:22;;;;;;;;;;;22.40;41.30;;;26.36;26.94;101489.44;5075204;28;20093;-19
2022/06/02 04:00:49;;;;;;;0.60;0.60;;;22.50;41.20;;;26.30;27.07;101495.25;5093223;28;20249;-19
2022/06/02 04:03:50;;;;;;;0.60;0.60;;;22.50;41.10;;;26.28;27.22;101496.31;5092983;28;20048;-19
2022/06/02 04:06:33;;;;;;;0.50;0.50;;;22.50;41.10;;;26.26;26.99;101496.44;5092979;28;20515;-19
2022/06/02 04:09:26;;;;;;;0.60;0.60;;;22.60;41.00;;;26.31;27.07;101488.94;5093048;28;20384;-20
2022/06/02 04:15:54;;;;;;;1.05;0.93;;;22.70;40.90;;;26.39;27.08;101504.44;5077891;28;20032;-18
2022/06/02 04:19:00;;;;;;;0.70;0.70;;;22.70;40.80;;;26.45;27.06;101509.34;5071871;28;20408;-19
2022/06/02 04:22:05;;;;;;;0.60;0.60;;;22.80;40.80;;;26.45;27.05;101503.97;5075050;28;20868;-19
2022/06/02 04:25:03;;;;;;;0.88;0.88;;;22.90;40.80;;;26.54;27.09;101518.50;5074585;28;20511;-19
2022/06/02 04:27:48;;;;;;;0.60;0.60;;;22.90;41.30;;;26.51;26.87;101505.31;5092984;28;20089;-18
2022/06/02 04:30:22;;;;;;;0.65;0.65;;;22.90;40.70;;;26.53;26.90;101509.63;5092655;28;20040;-18
2022/06/02 04:33:12;;;;;;;0.70;0.70;;;22.90;40.70;;;26.56;27.03;101519.25;5092980;28;20399;-18
2022/06/02 04:36:08;;;;;;;0.70;0.70;;;22.90;40.70;;;26.58;26.99;101515.47;5093185;28;20422;-19
2022/06/02 04:39:20;;;;;;;1.13;0.70;;;22.90;40.80;;;26.60;26.82;101521.56;5074550;28;20475;-19
2022/06/02 04:42:11;;;;;;;0.70;0.70;;;22.80;40.70;;;26.56;26.80;101525.47;5092794;28;20048;-19
2022/06/02 04:45:00;;;;;;;0.60;0.60;;;22.80;40.70;;;26.54;27.05;101532.75;5073612;28;20137;-18
2022/06/02 04:47:52;;;;;;;0.60;0.60;;;22.80;40.80;;;26.56;26.79;101536.22;5074576;28;20040;-19
2022/06/02 04:50:58;;;;;;;0.70;0.70;;;22.80;40.90;;;26.56;27.05;101546.94;5074293;28;20487;-19
2022/06/02 04:53:37;;;;;;;0.60;0.60;;;22.70;40.90;;;26.49;26.84;101547.50;5072974;28;20063;-19
2022/06/02 04:56:46;;;;;;;0.60;0.60;;;22.70;41.00;;;26.49;26.86;101553.72;5074308;28;20048;-18
2022/06/02 04:59:30;;;;;;;0.70;0.70;;;22.60;41.00;;;26.43;26.90;101546.16;4990916;28;20069;-19
2022/06/02 05:02:19;;;;;;;0.60;0.60;;;22.60;41.10;;;26.46;27.13;101555.78;5070219;28;20049;-19
2022/06/02 05:05:11;;;;;;;0.77;0.77;;;22.60;41.20;;;26.43;26.80;101562.22;5073742;28;20094;-19
2022/06/02 05:08:14;;;;;;;0.60;0.60;;;22.50;41.20;;;26.41;27.21;101558.78;5092209;28;20051;-19
2022/06/02 05:10:56;;;;;;;0.50;0.50;;;22.50;41.20;;;26.38;26.98;101556.31;5074059;28;20048;-19
2022/06/02 05:14:10;;;;;;;0.70;0.70;;;22.50;41.30;;;26.39;26.94;101558.06;5074146;28;20052;-19
2022/06/02 05:16:58;;;;;;;0.70;0.70;;;22.50;41.30;;;26.33;27.03;101562.06;5092088;28;20052;-19
2022/06/02 05:19:53;;;;;;;0.85;0.85;;;22.50;41.50;;;26.34;26.92;101562.91;5075186;28;20052;-19
2022/06/02 05:23:07;;;;;;;0.70;0.70;;;22.50;41.30;;;26.35;27.04;101564.63;5095842;28;20059;-19
2022/06/02 05:26:06;;;;;;;0.70;0.70;;;22.50;41.30;;;26.32;27.05;101571.06;5095815;28;20139;-18
2022/06/02 05:29:29;;;;;;;0.70;0.70;;;22.50;41.30;;;26.36;27.23;101572.56;5095275;28;20519;-19
2022/06/02 05:32:35;;;;;;;0.60;0.57;;;22.50;41.30;;;26.33;27.16;101570.09;5021784;28;20040;-19
2022/06/02 05:35:47;;;;;;;0.60;0.60;;;22.50;41.20;;;26.33;27.02;101570.09;5095430;28;20042;-18
2022/06/02 05:38:58;;;;;;;0.60;0.60;;;22.50;41.20;;;26.34;27.16;101571.78;5075250;28;20066;-18
2022/06/02 05:41:48;;;;;;;0.70;0.70;;;22.50;41.20;;;26.36;27.22;101579.72;5095196;28;20044;-20
2022/06/02 05:45:04;;;;;;;0.70;0.70;;;22.50;41.20;;;26.37;27.14;101576.94;5095183;28;20052;-19
2022/06/02 05:47:41;;;;;;;0.60;0.60;;;22.50;41.10;;;26.36;26.95;101585.09;5095070;28;20514;-18
2022/06/02 05:50:53;;;;;;;0.60;0.60;;;22.50;41.10;;;26.34;26.89;101584.34;5095161;28;20052;-19
2022/06/02 05:53:35;;;;;;;0.50;0.50;;;22.50;41.10;;;26.39;26.86;101598.28;5086737;28;20051;-19
2022/06/02 05:56:26;;;;;;;0.70;0.70;;;22.60;41.10;;;26.40;26.82;101602.69;5076874;28;20058;-19
2022/06/02 05:59:24;;;;;;;0.60;0.60;;;22.50;41.00;;;26.37;26.98;101586.81;5095127;28;20048;-19
2022/06/02 06:02:33;;;;;;;0.57;0.57;;;22.50;41.10;;;26.41;27.01;101599.88;5094830;28;20044;-19
2022/06/02 06:05:26;;;;;;;0.70;0.70;;;22.60;41.10;;;26.35;27.13;101600.31;5076505;28;20048;-19
2022/06/02 06:08:18;;;;;;;0.60;0.60;;;22.50;41.10;;;26.32;27.14;101597.03;5073720;28;20057;-19
2022/06/02 06:11:14;;;;;;;0.80;0.73;;;22.50;41.10;;;26.35;27.10;101608.38;5094648;28;20445;-19
2022/06/02 06:14:19;;;;;;;0.68;0.68;;;22.50;41.10;;;26.32;27.00;101587.16;5075915;28;20067;-20
2022/06/02 06:17:29;;;;;;;0.50;0.50;;;22.50;41.10;;;26.37;26.99;101600.22;5094895;28;20182;-20
2022/06/02 06:20:37;;;;;;;0.85;0.82;;;22.50;41.10;;;26.35;26.93;101610.19;5094674;28;20051;-20
2022/06/02 06:23:41;;;;;;;0.70;0.70;;;22.50;41.10;;;26.36;26.90;101609.22;5094941;28;20051;-21
2022/06/02 06:26:48;;;;;;;0.60;0.60;;;22.50;41.10;;;26.37;26.93;101614.47;5076764;28;20052;-19
2022/06/02 06:29:27;;;;;;;0.75;0.75;;;22.50;41.10;;;26.38;27.14;101609.94;5094020;28;20060;-19
2022/06/02 06:32:21;;;;;;;0.68;0.68;;;22.50;41.00;;;26.40;26.96;101616.94;5074380;28;20045;-20
2022/06/02 06:35:28;;;;;;;1.13;0.80;;;22.60;41.00;;;26.43;26.87;101629.28;5076655;28;20059;-19
2022/06/02 06:38:27;;;;;;;0.63;0.63;;;22.60;41.00;;;26.45;27.03;101621.97;5085065;28;20048;-19
2022/06/02 06:41:20;;;;;;;0.60;0.60;;;22.70;40.90;;;26.51;26.96;101629.53;5094068;28;20376;-19
2022/06/02 06:44:08;;;;;;;0.60;0.60;;;22.70;40.80;;;26.58;26.93;101641.53;5076201;28;20047;-19
2022/06/02 06:47:06;;;;;;;0.93;0.73;;;22.90;40.60;;;26.62;26.76;101637.66;5093953;28;20048;-19
2022/06/02 06:49:51;;;;;;;0.52;0.52;;;22.90;40.60;;;26.62;26.72;101634.13;5069873;28;20036;-19
2022/06/02 06:52:50;;;;;;;0.60;0.60;;;22.80;40.60;;;26.62;26.71;101640.34;5059118;28;20054;-19
2022/06/02 06:55:29;;;;;;;0.75;0.65;;;22.80;41.20;;;26.62;26.78;101647.53;5094079;28;20083;-19
2022/06/02 06:58:42;;;;;;;0.73;0.73;;;22.80;40.70;;;26.61;26.57;101643.13;5074569;28;20049;-19
2022/06/02 07:01:55;;;;;;;0.50;0.50;;;22.80;40.70;;;26.56;26.74;101638.13;5075746;28;20055;-18
2022/06/02 07:04:38;;;;;;;0.70;0.65;;;22.70;40.70;;;26.59;26.57;101650.44;5071794;28;20048;-19
2022/06/02 07:07:53;;;;;;;0.60;0.60;;;22.70;40.70;;;26.58;26.76;101657.63;5074230;28;20044;-18
2022/06/02 07:10:31;;;;;;;1.02;0.90;;;22.70;40.80;;;26.52;26.84;101649.19;5093776;28;20400;-18
2022/06/02 07:13:22;;;;;;;0.70;0.70;;;22.70;40.80;;;26.55;26.68;101657.84;5075357;28;20052;-19
2022/06/02 07:16:17;;;;;;;0.70;0.70;;;22.70;40.80;;;26.54;26.64;101660.66;5073810;28;20053;-19
2022/06/02 07:19:24;;;;;;;0.93;0.88;;;22.60;40.90;;;26.55;26.59;101667.75;5063736;28;20048;-20
2022/06/02 07:22:37;;;;;;;0.65;0.65;;;22.60;40.90;;;26.52;26.95;101670.63;5073737;28;20059;-20
2022/06/02 07:25:26;;;;;;;0.93;0.75;;;22.60;41.00;;;26.45;26.80;101664.88;4995152;28;20047;-19
2022/06/02 07:28:24;;;;;;;0.55;0.55;;;22.60;41.00;;;26.44;27.01;101665.81;5074249;28;20055;-18
2022/06/02 07:31:29;;;;;;;0.85;0.85;;;22.60;41.00;;;26.48;26.66;101678.06;5075269;28;20086;-19
2022/06/02 07:34:22;;;;;;;1.10;0.80;;;22.60;41.00;;;26.45;26.82;101675.59;5075185;28;20106;-19
2022/06/02 07:37:05;;;;;;;0.60;0.60;;;22.60;41.00;;;26.45;26.90;101683.63;5093310;28;20056;-19
2022/06/02 07:40:19;;;;;;;0.70;0.70;;;22.60;41.00;;;26.46;26.99;101685.34;5074584;28;20376;-18
2022/06/02 07:43:26;;;;;;;0.70;0.70;;;22.60;41.00;;;26.41;26.97;101677.66;5075145;28;20127;-19
2022/06/02 07:46:19;;;;;;;1.10;0.70;;;22.50;41.00;;;26.43;26.98;101689.13;5075010;28;20492;-19
2022/06/02 07:49:38;;;;;;;0.68;0.68;;;22.50;41.00;;;26.43;26.96;101689.13;5074694;28;20080;-20
2022/06/02 07:52:24;;;;;;;0.70;0.70;;;22.50;41.10;;;26.40;26.92;101692.00;5092962;28;20052;-21
2022/06/02 07:55:50;;;;;;;0.52;0.52;;;22.50;41.10;;;26.42;26.77;101700.78;5093268;28;20083;-20
2022/06/02 07:58:35;;;;;;;0.70;0.70;;;22.50;41.10;;;26.40;27.04;101689.31;5073539;28;20087;-20
2022/06/02 08:01:16;;;;;;;0.65;0.63;;;22.50;41.00;;;26.40;26.98;101697.38;5092892;28;20458;-20
2022/06/02 08:04:11;;;;;;;0.60;0.60;;;22.50;41.00;;;26.37;27.00;101691.38;5092920;28;20392;-20
2022/06/02 08:06:41;;;;;;;0.70;0.70;;;22.50;41.10;;;26.40;26.90;101701.88;5074419;28;20063;-21
2022/06/02 08:10:07;;;;;;;1.10;0.70;;;22.50;41.10;;;26.41;27.00;101709.81;5093224;28;20077;-21
2022/06/02 08:12:49;;;;;;;0.73;0.73;;;22.50;41.10;;;26.38;26.96;101710.03;5030385;28;20195;-20
2022/06/02 08:15:24;;;;;;;0.60;0.60;;;22.50;41.20;;;26.34;26.92;101702.31;5030222;28;20045;-20
2022/06/02 08:18:32;;;;;;;0.73;0.73;;;22.50;41.20;;;26.38;27.01;101710.03;5071925;28;20132;-21
2022/06/02 08:21:16;;;;;;;2.33;0.90;;;22.50;41.50;;;26.40;27.32;101717.97;5072789;28;20401;-20
2022/06/02 08:24:34;;;;;;;0.50;0.50;;;22.50;41.40;;;26.42;27.26;101716.03;5092949;28;20052;-20
2022/06/02 08:27:45;;;;;;;0.70;0.60;;;22.60;41.90;;;26.49;27.16;101719.13;5072615;28;20070;-20
2022/06/02 08:30:46;;;;;;;0.80;0.80;;;22.60;41.30;;;26.51;27.30;101712.66;5092528;28;20040;-21
2022/06/02 08:33:42;;;;;;;2.25;0.75;;;22.70;41.30;;;26.49;27.40;101708.41;5093102;28;20043;-21
2022/06/02 08:36:15;;;;;;;2.35;0.77;;;22.70;41.30;;;26.54;27.23;101720.50;5074385;28;20484;-20
2022/06/02 08:39:09;;;;;;;2.50;0.80;;;22.70;41.20;;;26.56;27.23;101723.94;5074416;28;20044;-20
2022/06/02 08:42:16;;;;;;;0.63;0.63;;;22.70;41.20;;;26.59;27.25;101712.13;5092466;28;20044;-19
2022/06/02 08:45:10;;;;;;;0.82;0.60;;;22.80;41.30;;;26.64;27.32;101725.25;5073508;28;20075;-21
2022/06/02 08:48:24;;;;;;;1.48;0.77;;;22.80;41.20;;;26.65;27.12;101730.50;5074491;28;20130;-21
2022/06/02 08:51:39;;;;;;;2.38;0.98;;;22.90;41.40;;;26.72;27.25;101728.22;5092390;28;20504;-21
2022/06/02 08:54:49;;;;;;;1.17;0.70;;;23.00;41.30;;;26.78;27.11;101728.63;5095869;28;20090;-21
2022/06/02 08:57:55;;;;;;;0.50;0.50;;;23.00;41.10;;;26.82;27.01;101733.78;5095794;28;20076;-21
2022/06/02 09:01:21;;;;;;;0.93;0.50;;;23.10;41.00;;;26.91;27.15;101738.44;5077988;28;20070;-21
2022/06/02 09:04:35;;;;;;;1.00;0.90;;;23.10;40.90;;;26.96;26.97;101733.59;5095488;28;20450;-21
2022/06/02 09:07:35;;;;;;;0.95;0.70;;;23.20;41.10;;;27.02;26.90;101738.53;5077048;28;20404;-22
2022/06/02 09:10:56;;;;;;;0.70;0.70;;;23.20;40.90;;;27.04;27.05;101739.25;5095628;28;20044;-20
2022/06/02 09:13:56;;;;;;;1.13;0.80;;;23.20;41.00;;;27.08;26.83;101731.84;5095766;28;20040;-21
2022/06/02 09:16:35;;;;;;;1.02;0.80;;;23.30;41.00;;;27.06;26.82;101731.94;5095525;28;20044;-21
2022/06/02 09:19:41;;;;;;;1.30;0.82;;;23.30;40.90;;;27.12;26.96;101750.28;5095571;28;20052;-21
2022/06/02 09:22:47;;;;;;;1.85;0.60;;;23.30;40.90;;;27.13;26.92;101746.66;5052759;28;20533;-20
2022/06/02 09:26:00;;;;;;;1.23;0.77;;;23.30;40.90;;;27.15;26.93;101751.91;5095337;28;20056;-20
2022/06/02 09:28:59;;;;;;;0.82;0.63;;;23.30;40.90;;;27.20;26.76;101764.97;5095663;28;20423;-20
2022/06/02 09:32:22;;;;;;;0.63;0.63;;;23.40;41.20;;;27.25;26.97;101760.97;5095287;28;20097;-20
2022/06/02 09:35:15;;;;;;;2.58;0.80;;;23.40;41.00;;;27.21;26.93;101775.59;5076878;28;20044;-21
2022/06/02 09:38:05;;;;;;;1.20;0.70;;;23.30;40.90;;;27.14;26.95;101766.28;5095325;28;20553;-20
2022/06/02 09:40:45;;;;;;;1.50;0.80;;;23.30;41.10;;;27.13;26.98;101770.81;5077075;28;20052;-22
2022/06/02 09:43:45;;;;;;;0.70;0.70;;;23.30;41.10;;;27.12;26.69;101773.59;5094502;28;20044;-20
2022/06/02 09:46:54;;;;;;;2.13;0.88;;;23.20;41.10;;;27.17;26.94;101779.47;5094660;28;20051;-20
2022/06/02 09:49:48;;;;;;;0.68;0.68;;;23.20;41.10;;;27.12;26.83;101777.13;5076251;28;20063;-21
2022/06/02 09:52:39;;;;;;;1.60;0.90;;;23.20;41.10;;;27.13;26.88;101780.66;5075374;28;20460;-21
2022/06/02 09:55:51;;;;;;;1.57;0.80;;;23.20;41.10;;;27.14;26.69;101785.06;5076461;28;20080;-21
2022/06/02 09:58:55;;;;;;;0.85;0.75;;;23.20;41.10;;;27.12;26.90;101785.19;5076876;28;20142;-22
2022/06/02 10:02:17;;;;;;;0.75;0.73;;;23.10;41.00;;;27.09;26.80;101787.25;5094740;28;20131;-20
2022/06/02 10:05:23;;;;;;;0.63;0.60;;;23.10;41.10;;;27.04;27.01;101778.69;5091789;28;20082;-22
2022/06/02 10:08:04;;;;;;;1.60;0.60;;;23.10;41.10;;;27.03;27.07;101788.56;5092520;28;20036;-22
2022/06/02 10:10:54;;;;;;;0.55;0.52;;;23.10;41.00;;;27.06;26.61;101795.53;5093245;28;20040;-22
2022/06/02 10:14:02;;;;;;;0.77;0.60;;;23.20;41.00;;;27.04;26.92;101794.78;5093672;28;20044;-20
2022/06/02 10:16:55;;;;;;;0.70;0.70;;;23.10;41.00;;;27.05;26.86;101801.84;5073683;28;20488;-21
2022/06/02 10:19:40;;;;;;;0.60;0.60;;;23.10;40.90;;;27.04;26.71;101809.06;5075115;28;20441;-21
2022/06/02 10:22:17;;;;;;;0.70;0.70;;;23.10;40.90;;;27.01;26.58;101798.53;5094245;28;20044;-21
2022/06/02 10:25:19;;;;;;;0.70;0.70;;;23.20;41.00;;;27.02;26.76;101796.72;5059517;28;20357;-21
2022/06/02 10:28:41;;;;;;;0.95;0.65;;;23.10;40.90;;;27.09;26.88;101814.09;5076100;28;20160;-21
2022/06/02 10:31:50;;;;;;;2.20;0.77;;;23.10;40.90;;;27.06;26.73;101796.38;5094726;28;20036;-21
2022/06/02 10:34:29;;;;;;;2.17;0.82;;;23.20;40.90;;;27.06;26.57;101800.88;5076287;28;20360;-21
2022/06/02 10:37:43;;;;;;;0.75;0.70;;;23.20;40.80;;;27.12;26.54;101798.59;5074792;28;20472;-21
2022/06/02 10:40:38;;;;;;;0.95;0.70;;;23.20;40.70;;;27.09;26.51;101803.34;5075167;28;20045;-21
2022/06/02 10:43:52;;;;;;;4.50;0.82;;;23.30;40.60;;;27.17;26.50;101806.34;5075754;28;20420;-21
2022/06/02 10:46:39;;;;;;;1.05;0.85;;;23.30;40.60;;;27.18;26.68;101808.91;5094494;28;20048;-21
2022/06/02 10:49:38;;;;;;;1.70;0.90;;;23.40;40.50;;;27.16;26.60;101804.59;5076083;28;20093;-21
2022/06/02 10:52:46;;;;;;;0.60;0.60;;;23.30;40.50;;;27.21;26.47;101812.31;5093796;28;20457;-21
2022/06/02 10:55:44;;;;;;;0.80;0.80;;;23.30;40.60;;;27.17;26.63;101814.38;5074195;28;20048;-21
2022/06/02 10:58:54;;;;;;;0.88;0.70;;;23.30;40.60;;;27.15;26.57;101819.88;5094315;28;20040;-20
2022/06/02 11:01:54;;;;;;;0.65;0.60;;;23.20;40.70;;;27.10;26.37;101807.75;5075032;28;20049;-21
2022/06/02 11:05:03;;;;;;;0.73;0.70;;;23.20;40.70;;;27.11;26.73;101818.34;5074638;28;20049;-21
2022/06/02 11:07:41;;;;;;;1.58;0.90;;;23.10;40.70;;;27.07;26.55;101821.41;5059298;28;20044;-21
2022/06/02 11:10:26;;;;;;;1.23;0.80;;;23.10;40.80;;;26.99;26.56;101809.38;5094302;28;20372;-21
2022/06/02 11:13:47;;;;;;;1.85;0.60;;;23.10;40.90;;;27.08;26.52;101825.78;5094050;28;20539;-21
2022/06/02 11:16:44;;;;;;;0.83;0.70;;;23.10;40.80;;;27.07;26.77;101824.94;5026299;28;20051;-19
2022/06/02 11:19:48;;;;;;;0.65;0.63;;;23.10;40.70;;;27.09;26.57;101824.81;5075328;28;20044;-19
2022/06/02 11:22:59;;;;;;;0.80;0.80;;;23.20;40.70;;;27.08;26.62;101820.41;5093624;28;20044;-19
2022/06/02 11:26:10;;;;;;;0.80;0.70;;;23.20;40.50;;;27.12;26.71;101828.13;5075352;28;20048;-19
2022/06/02 11:29:15;;;;;;;0.57;0.57;;;23.20;40.50;;;27.16;26.46;101826.97;5093891;28;20464;-19
2022/06/02 11:32:11;;;;;;;0.90;0.90;;;23.30;40.50;;;27.17;26.43;101834.03;5093291;28;20479;-19
2022/06/02 11:35:16;;;;;;;0.80;0.80;;;23.30;40.40;;;27.18;26.38;101829.50;5064398;28;20075;-20
2022/06/02 11:38:36;;;;;;;1.08;0.75;;;23.30;40.30;;;27.18;26.47;101841.13;5192915;27;20208;-20
2022/06/02 11:41:29;;;;;;;0.93;0.70;;;23.30;40.40;;;27.12;26.68;101824.59;5171901;27;20038;-20
2022/06/02 11:44:24;;;;;;;1.02;0.90;;;23.30;40.40;;;27.16;26.44;101831.44;5151791;27;20046;-21
2022/06/02 11:47:18;;;;;;;0.70;0.70;;;23.30;40.40;;;27.14;26.55;101838.75;5151122;27;20138;-21
2022/06/02 11:50:05;;;;;;;0.75;0.75;;;23.30;40.50;;;27.15;26.54;101845.88;5171630;27;20142;-20
2022/06/02 11:53:10;;;;;;;1.50;0.88;;;23.20;40.40;;;27.10;26.27;101832.78;5171761;27;20046;-20
2022/06/02 11:56:09;;;;;;;1.25;0.88;;;23.20;40.50;;;27.06;26.49;101838.47;5150686;27;20070;-21
2022/06/02 11:59:00;;;;;;;1.23;0.90;;;23.10;40.60;;;27.04;26.27;101838.56;5124472;27;20042;-21
2022/06/02 12:01:44;;;;;;;;;;;23.10;40.70;;;27.20;26.48;101840.13;5171716;27;20462;-21
2022/06/02 12:04:46;;;;;;;3.10;0.70;;;23.10;40.70;;;27.10;26.57;101850.72;5151324;27;19911;-21
2022/06/02 12:07:53;;;;;;;3.78;1.08;;;23.20;40.70;;;27.09;26.63;101835.56;5171419;27;20057;-21
2022/06/02 12:11:15;;;;;;;0.93;0.90;;;23.20;40.50;;;27.15;26.48;101848.56;5170946;27;20458;-21
2022/06/02 12:13:53;;;;;;;1.30;0.70;;;23.30;40.40;;;27.12;26.59;101844.25;5170905;27;20125;-21
2022/06/02 12:17:01;;;;;;;1.23;0.90;;;23.30;40.40;;;27.15;26.58;101838.66;5170953;27;20439;-21
2022/06/02 12:20:05;;;;;;;2.20;1.00;;;23.30;40.30;;;27.14;26.38;101836.09;5170437;27;20079;-22
2022/06/02 12:23:04;;;;;;;0.70;0.70;;;23.30;40.40;;;27.17;26.43;101835.88;5170795;27;20038;-22